createdAt,value
2022-08-16T00:00:04.299Z,3.20
2022-08-16T00:02:34.731Z,3.13
2022-08-16T00:05:09.400Z,3.37
2022-08-16T00:07:38.367Z,3.50
2022-08-16T00:10:21.066Z,3.43
2022-08-16T00:12:50.098Z,3.63
2022-08-16T00:15:24.754Z,3.50
2022-08-16T00:18:14.070Z,2.80
2022-08-16T00:20:47.866Z,3.40
2022-08-16T00:23:19.496Z,3.47
2022-08-16T00:26:33.390Z,4.77
2022-08-16T00:28:54.901Z,4.63
2022-08-16T00:31:24.300Z,4.03
2022-08-16T00:33:52.839Z,2.77
2022-08-16T00:36:22.230Z,3.33
2022-08-16T00:38:52.351Z,3.30
2022-08-16T00:41:24.916Z,3.37
2022-08-16T00:43:53.507Z,3.37
2022-08-16T00:46:33.897Z,3.87
2022-08-16T00:49:06.044Z,3.00
2022-08-16T00:51:35.803Z,2.93
2022-08-16T00:54:08.045Z,2.80
2022-08-16T00:56:58.359Z,3.33
2022-08-16T00:59:32.850Z,3.60
2022-08-16T01:02:30.815Z,3.57
2022-08-16T01:05:09.556Z,4.10
2022-08-16T01:07:50.849Z,3.77
2022-08-16T01:10:21.055Z,3.60
2022-08-16T01:12:49.482Z,3.40
2022-08-16T01:15:18.498Z,3.53
2022-08-16T01:17:56.123Z,3.63
2022-08-16T01:20:30.123Z,3.43
2022-08-16T01:23:08.694Z,3.37
2022-08-16T01:25:44.084Z,4.07
2022-08-16T01:28:19.927Z,2.80
2022-08-16T01:30:54.273Z,3.70
2022-08-16T01:33:23.630Z,4.30
2022-08-16T01:35:57.362Z,5.00
2022-08-16T01:38:30.736Z,3.80
2022-08-16T01:41:05.531Z,4.07
2022-08-16T01:43:37.491Z,4.07
2022-08-16T01:46:29.815Z,3.30
2022-08-16T01:49:11.059Z,3.40
2022-08-16T01:51:43.630Z,3.67
2022-08-16T01:54:13.266Z,4.10
2022-08-16T01:56:45.052Z,3.67
2022-08-16T01:59:17.037Z,3.50
2022-08-16T02:01:52.693Z,3.27
2022-08-16T02:04:49.250Z,3.80
2022-08-16T02:07:18.396Z,3.80
2022-08-16T02:09:57.052Z,4.10
2022-08-16T02:12:50.597Z,4.00
2022-08-16T02:15:24.933Z,3.67
2022-08-16T02:17:54.730Z,3.83
2022-08-16T02:20:26.322Z,3.57
2022-08-16T02:22:56.460Z,3.60
2022-08-16T02:25:52.674Z,3.70
2022-08-16T02:28:19.388Z,3.40
2022-08-16T02:30:51.619Z,4.33
2022-08-16T02:33:24.754Z,3.30
2022-08-16T02:36:14.383Z,4.80
2022-08-16T02:38:58.363Z,5.20
2022-08-16T02:41:27.135Z,3.50
2022-08-16T02:43:56.629Z,4.40
2022-08-16T02:46:30.018Z,4.67
2022-08-16T02:49:02.382Z,4.43
2022-08-16T02:51:31.368Z,3.90
2022-08-16T02:54:00.228Z,4.07
2022-08-16T02:56:32.053Z,3.80
2022-08-16T02:59:02.605Z,4.77
2022-08-16T03:01:41.662Z,5.17
2022-08-16T03:04:39.727Z,3.90
2022-08-16T03:06:59.096Z,4.10
2022-08-16T03:09:28.827Z,4.07
2022-08-16T03:11:58.659Z,3.73
2022-08-16T03:14:30.817Z,4.00
2022-08-16T03:17:00.893Z,3.70
2022-08-16T03:19:48.580Z,3.97
2022-08-16T03:22:29.089Z,4.70
2022-08-16T03:25:00.851Z,4.70
2022-08-16T03:27:32.115Z,4.13
2022-08-16T03:30:16.937Z,4.40
2022-08-16T03:32:47.851Z,3.80
2022-08-16T03:35:23.879Z,4.20
2022-08-16T03:38:33.974Z,3.87
2022-08-16T03:40:54.143Z,4.30
2022-08-16T03:43:22.304Z,5.00
2022-08-16T03:45:54.214Z,4.27
2022-08-16T03:48:36.365Z,3.60
2022-08-16T03:51:09.511Z,4.17
2022-08-16T03:53:38.479Z,4.17
2022-08-16T03:56:19.858Z,3.90
2022-08-16T03:58:50.905Z,4.80
2022-08-16T04:01:23.076Z,3.40
2022-08-16T04:03:52.859Z,4.20
2022-08-16T04:06:23.362Z,4.00
2022-08-16T04:08:51.994Z,3.33
2022-08-16T04:11:23.709Z,3.73
2022-08-16T04:14:01.492Z,4.77
2022-08-16T04:16:38.480Z,3.67
2022-08-16T04:19:06.935Z,4.07
2022-08-16T04:21:47.467Z,3.93
2022-08-16T04:24:16.376Z,4.10
2022-08-16T04:26:46.013Z,4.40
2022-08-16T04:29:23.904Z,4.40
2022-08-16T04:31:57.980Z,4.90
2022-08-16T04:34:30.807Z,4.80
2022-08-16T04:37:01.512Z,4.90
2022-08-16T04:39:45.712Z,4.40
2022-08-16T04:42:17.379Z,4.90
2022-08-16T04:44:54.169Z,4.77
2022-08-16T04:47:31.393Z,4.60
2022-08-16T04:50:00.782Z,4.13
2022-08-16T04:52:33.468Z,4.97
2022-08-16T04:55:04.825Z,4.80
2022-08-16T04:57:33.165Z,5.50
2022-08-16T05:00:32.238Z,4.23
2022-08-16T05:02:54.959Z,4.67
2022-08-16T05:05:24.968Z,5.30
2022-08-16T05:08:00.385Z,5.57
2022-08-16T05:10:30.196Z,6.70
2022-08-16T05:12:58.806Z,6.70
2022-08-16T05:15:27.997Z,4.43
2022-08-16T05:17:59.595Z,4.43
2022-08-16T05:20:39.434Z,5.10
2022-08-16T05:23:15.079Z,5.10
2022-08-16T05:25:48.511Z,5.10
2022-08-16T05:28:18.802Z,4.60
2022-08-16T05:30:50.295Z,4.87
2022-08-16T05:33:21.162Z,4.43
2022-08-16T05:35:55.115Z,5.30
2022-08-16T05:38:33.080Z,5.30
2022-08-16T05:41:09.405Z,4.47
2022-08-16T05:43:43.196Z,4.13
2022-08-16T05:46:29.731Z,3.80
2022-08-16T05:49:05.789Z,4.30
2022-08-16T05:51:38.902Z,4.30
2022-08-16T05:54:11.654Z,4.23
2022-08-16T05:56:43.266Z,4.27
2022-08-16T05:59:11.688Z,4.30
2022-08-16T06:01:41.160Z,4.60
2022-08-16T06:04:35.875Z,4.57
2022-08-16T06:07:06.903Z,5.27
2022-08-16T06:09:42.748Z,4.83
2022-08-16T06:12:27.273Z,5.43
2022-08-16T06:14:59.691Z,5.53
2022-08-16T06:17:42.329Z,4.60
2022-08-16T06:20:23.139Z,5.33
2022-08-16T06:22:57.630Z,5.70
2022-08-16T06:25:36.042Z,4.57
2022-08-16T06:28:08.573Z,5.00
2022-08-16T06:30:43.402Z,4.07
2022-08-16T06:33:13.478Z,4.20
2022-08-16T06:35:54.758Z,4.67
2022-08-16T06:38:33.994Z,4.27
2022-08-16T06:41:05.548Z,4.57
2022-08-16T06:43:36.953Z,4.33
2022-08-16T06:46:10.646Z,4.13
2022-08-16T06:48:43.105Z,3.90
2022-08-16T06:51:14.868Z,4.10
2022-08-16T06:53:43.238Z,3.77
2022-08-16T06:56:14.363Z,4.07
2022-08-16T06:58:52.714Z,3.93
2022-08-16T07:01:43.353Z,3.30
2022-08-16T07:04:12.083Z,4.03
2022-08-16T07:06:43.178Z,3.30
2022-08-16T07:09:12.679Z,3.37
2022-08-16T07:11:47.216Z,3.53
2022-08-16T07:14:24.724Z,3.80
2022-08-16T07:16:57.939Z,3.87
2022-08-16T07:20:04.151Z,3.27
2022-08-16T07:22:36.552Z,3.33
2022-08-16T07:25:09.219Z,3.33
2022-08-16T07:27:38.551Z,3.97
2022-08-16T07:30:38.350Z,3.90
2022-08-16T07:32:59.944Z,3.83
2022-08-16T07:35:30.730Z,2.83
2022-08-16T07:38:00.974Z,3.90
2022-08-16T07:40:49.545Z,4.27
2022-08-16T07:43:19.039Z,3.50
2022-08-16T07:45:53.200Z,3.67
2022-08-16T07:48:22.258Z,3.90
2022-08-16T07:50:56.789Z,3.67
2022-08-16T07:53:30.310Z,3.90
2022-08-16T07:56:00.282Z,3.33
2022-08-16T07:58:34.391Z,3.63
2022-08-16T08:01:10.367Z,2.93
2022-08-16T08:03:48.202Z,3.00
2022-08-16T08:06:18.380Z,3.40
2022-08-16T08:08:51.104Z,2.77
2022-08-16T08:11:23.915Z,3.30
2022-08-16T08:13:53.853Z,3.80
2022-08-16T08:16:30.315Z,2.97
2022-08-16T08:19:02.920Z,2.97
2022-08-16T08:21:58.871Z,2.70
2022-08-16T08:24:32.223Z,2.73
2022-08-16T08:27:02.444Z,2.60
2022-08-16T08:29:37.297Z,2.73
2022-08-16T08:32:57.028Z,2.40
2022-08-16T08:35:00.354Z,2.23
2022-08-16T08:37:55.625Z,4.50
2022-08-16T08:40:26.712Z,2.30
2022-08-16T08:43:00.095Z,2.47
2022-08-16T08:45:46.882Z,2.50
2022-08-16T08:48:34.111Z,2.30
2022-08-16T08:51:04.648Z,1.90
2022-08-16T08:53:33.663Z,2.00
2022-08-16T08:56:23.292Z,2.23
2022-08-16T08:59:00.985Z,3.27
2022-08-16T09:01:42.779Z,1.83
2022-08-16T09:04:14.609Z,2.00
2022-08-16T09:06:46.122Z,2.53
2022-08-16T09:09:16.607Z,2.20
2022-08-16T09:11:53.698Z,1.90
2022-08-16T09:14:35.898Z,1.83
2022-08-16T09:17:11.929Z,2.40
2022-08-16T09:19:55.190Z,2.30
2022-08-16T09:22:27.310Z,2.27
2022-08-16T09:25:07.796Z,2.23
2022-08-16T09:27:46.836Z,1.67
2022-08-16T09:30:34.333Z,2.03
2022-08-16T09:33:14.501Z,2.30
2022-08-16T09:35:43.163Z,2.00
2022-08-16T09:38:31.283Z,2.33
2022-08-16T09:41:02.015Z,2.40
2022-08-16T09:43:58.055Z,2.03
2022-08-16T09:46:33.520Z,1.90
2022-08-16T09:49:09.285Z,1.80
2022-08-16T09:51:40.641Z,2.13
2022-08-16T09:54:10.753Z,1.83
2022-08-16T09:56:52.591Z,1.80
2022-08-16T09:59:25.462Z,2.10
2022-08-16T10:01:59.566Z,2.23
2022-08-16T10:04:30.256Z,1.90
2022-08-16T10:07:15.035Z,1.80
2022-08-16T10:09:55.095Z,2.70
2022-08-16T10:12:46.222Z,2.30
2022-08-16T10:15:21.030Z,2.30
2022-08-16T10:18:00.252Z,2.20
2022-08-16T10:20:33.970Z,1.80
2022-08-16T10:23:07.279Z,1.80
2022-08-16T10:27:17.256Z,1.77
2022-08-16T10:28:31.838Z,1.70
2022-08-16T10:31:04.282Z,1.50
2022-08-16T10:33:33.967Z,1.60
2022-08-16T10:36:07.582Z,1.80
2022-08-16T10:38:39.651Z,1.47
2022-08-16T10:41:15.899Z,1.60
2022-08-16T10:43:44.660Z,1.80
2022-08-16T10:46:40.118Z,1.50
2022-08-16T10:49:05.210Z,1.90
2022-08-16T10:52:00.741Z,1.73
2022-08-16T10:54:29.657Z,1.33
2022-08-16T10:56:59.317Z,1.70
2022-08-16T10:59:38.306Z,1.80
2022-08-16T11:02:59.115Z,1.50
2022-08-16T11:05:14.127Z,1.63
2022-08-16T11:07:55.013Z,1.70
2022-08-16T11:13:58.292Z,1.80
2022-08-16T11:19:04.128Z,1.70
2022-08-16T11:21:37.437Z,2.30
2022-08-16T11:24:41.369Z,1.63
2022-08-16T11:27:23.668Z,2.37
2022-08-16T11:29:55.707Z,2.43
2022-08-16T11:32:31.890Z,1.97
2022-08-16T11:35:13.255Z,2.60
2022-08-16T11:40:40.858Z,2.03
2022-08-16T11:43:16.645Z,2.33
2022-08-16T11:45:54.266Z,1.97
2022-08-16T11:48:24.609Z,1.73
2022-08-16T11:50:54.419Z,2.00
2022-08-16T11:53:24.249Z,2.10
2022-08-16T11:55:55.220Z,1.80
2022-08-16T11:58:26.016Z,1.80
2022-08-16T12:00:57.426Z,2.07
2022-08-16T12:03:34.345Z,2.40
2022-08-16T12:06:30.364Z,1.70
2022-08-16T12:09:02.037Z,2.20
2022-08-16T12:11:32.055Z,1.53
2022-08-16T12:14:04.635Z,2.07
2022-08-16T12:16:34.745Z,1.90
2022-08-16T12:19:04.437Z,1.60
2022-08-16T12:21:36.122Z,1.90
2022-08-16T12:24:23.802Z,1.60
2022-08-16T12:26:52.406Z,2.23
2022-08-16T12:29:21.232Z,2.10
2022-08-16T12:32:01.451Z,2.10
2022-08-16T12:34:39.804Z,1.90
2022-08-16T12:37:20.068Z,2.00
2022-08-16T12:39:51.323Z,1.90
2022-08-16T12:42:22.390Z,2.13
2022-08-16T12:45:04.674Z,2.30
2022-08-16T12:47:50.587Z,1.67
2022-08-16T12:50:19.924Z,2.40
2022-08-16T12:52:52.939Z,1.67
2022-08-16T12:55:23.738Z,2.47
2022-08-16T12:57:58.391Z,2.50
2022-08-16T13:00:33.179Z,2.40
2022-08-16T13:03:07.875Z,2.10
2022-08-16T13:05:45.111Z,2.00
2022-08-16T13:08:27.552Z,2.43
2022-08-16T13:11:00.516Z,1.70
2022-08-16T13:13:34.692Z,2.37
2022-08-16T13:16:15.456Z,2.17
2022-08-16T13:18:51.527Z,1.93
2022-08-16T13:21:23.731Z,2.13
2022-08-16T13:23:55.370Z,2.30
2022-08-16T13:26:26.341Z,2.53
2022-08-16T13:28:57.011Z,2.70
2022-08-16T13:31:25.090Z,2.80
2022-08-16T13:33:58.680Z,2.80
2022-08-16T13:39:17.838Z,2.27
2022-08-16T13:41:53.781Z,2.20
2022-08-16T13:44:22.628Z,1.83
2022-08-16T13:47:10.736Z,1.93
2022-08-16T13:49:41.306Z,2.30
2022-08-16T13:52:12.178Z,2.13
2022-08-16T13:54:44.660Z,2.03
2022-08-16T13:57:13.820Z,2.40
2022-08-16T13:59:43.276Z,2.30
2022-08-16T14:02:18.172Z,2.00
2022-08-16T14:04:46.585Z,2.37
2022-08-16T14:07:34.086Z,2.20
2022-08-16T14:10:07.154Z,2.50
2022-08-16T14:12:36.622Z,2.40
2022-08-16T14:15:08.728Z,1.90
2022-08-16T14:18:14.921Z,1.90
2022-08-16T14:20:25.834Z,2.80
2022-08-16T14:22:55.215Z,2.00
2022-08-16T14:25:26.835Z,2.07
2022-08-16T14:27:55.792Z,2.20
2022-08-16T14:30:25.598Z,2.00
2022-08-16T14:32:54.205Z,2.10
2022-08-16T14:35:36.340Z,1.80
2022-08-16T14:38:05.952Z,1.90
2022-08-16T14:40:36.570Z,2.40
2022-08-16T14:43:08.070Z,2.33
2022-08-16T14:45:36.814Z,1.67
2022-08-16T14:48:06.155Z,2.00
2022-08-16T14:50:34.672Z,1.97
2022-08-16T14:53:08.596Z,1.90
2022-08-16T14:55:41.090Z,1.80
2022-08-16T14:58:18.706Z,1.60
2022-08-16T15:00:50.383Z,1.67
2022-08-16T15:03:23.191Z,1.77
2022-08-16T15:05:53.787Z,1.63
2022-08-16T15:08:36.142Z,2.30
2022-08-16T15:11:07.766Z,2.33
2022-08-16T15:13:36.479Z,3.10
2022-08-16T15:16:05.388Z,2.00
2022-08-16T15:18:34.254Z,1.87
2022-08-16T15:21:05.703Z,1.60
2022-08-16T15:23:36.815Z,2.10
2022-08-16T15:26:11.080Z,1.90
2022-08-16T15:28:47.053Z,1.80
2022-08-16T15:31:16.182Z,1.60
2022-08-16T15:33:51.085Z,2.20
2022-08-16T15:36:25.768Z,2.10
2022-08-16T15:39:06.919Z,1.80
2022-08-16T15:42:03.176Z,2.27
2022-08-16T15:44:42.750Z,2.20
2022-08-16T15:47:19.614Z,1.80
2022-08-16T15:49:54.641Z,1.97
2022-08-16T15:52:29.809Z,2.20
2022-08-16T15:55:00.408Z,2.30
2022-08-16T15:57:51.956Z,2.00
2022-08-16T16:00:21.070Z,2.13
2022-08-16T16:02:49.839Z,2.30
2022-08-16T16:05:19.043Z,2.30
2022-08-16T16:07:56.330Z,1.80
2022-08-16T16:10:29.399Z,2.17
2022-08-16T16:13:01.657Z,2.27
2022-08-16T16:15:34.814Z,2.10
2022-08-16T16:18:09.223Z,2.07
2022-08-16T16:20:39.473Z,1.67
2022-08-16T16:23:10.964Z,2.20
2022-08-16T16:25:43.941Z,1.87
2022-08-16T16:29:06.497Z,2.10
2022-08-16T16:31:08.459Z,2.57
2022-08-16T16:33:39.741Z,2.30
2022-08-16T16:36:11.101Z,2.00
2022-08-16T16:38:42.791Z,2.10
2022-08-16T16:41:12.503Z,2.37
2022-08-16T16:43:46.950Z,2.37
2022-08-16T16:46:40.999Z,2.43
2022-08-16T16:49:14.142Z,2.00
2022-08-16T16:51:44.564Z,2.00
2022-08-16T16:54:27.781Z,2.00
2022-08-16T16:56:57.836Z,1.90
2022-08-16T16:59:28.245Z,2.90
2022-08-16T17:02:01.588Z,2.00
2022-08-16T17:04:47.251Z,2.47
2022-08-16T17:07:15.892Z,2.10
2022-08-16T17:09:45.603Z,2.43
2022-08-16T17:12:24.909Z,2.07
2022-08-16T17:14:55.792Z,2.10
2022-08-16T17:17:26.275Z,2.20
2022-08-16T17:19:54.935Z,2.10
2022-08-16T17:22:23.999Z,1.97
2022-08-16T17:25:01.458Z,2.10
2022-08-16T17:27:33.871Z,2.20
2022-08-16T17:30:14.829Z,2.20
2022-08-16T17:35:40.185Z,2.30
2022-08-16T17:38:11.453Z,2.20
2022-08-16T17:39:28.026Z,1.93
2022-08-16T17:40:49.389Z,2.13
2022-08-16T17:43:27.444Z,1.93
2022-08-16T17:45:58.168Z,2.20
2022-08-16T17:48:31.001Z,2.50
2022-08-16T17:51:01.088Z,2.40
2022-08-16T17:53:29.534Z,3.50
2022-08-16T17:55:57.565Z,2.87
2022-08-16T17:58:27.532Z,2.60
2022-08-16T18:01:02.033Z,2.93
2022-08-16T18:04:08.599Z,2.37
2022-08-16T18:06:25.999Z,2.20
2022-08-16T18:09:02.497Z,2.53
2022-08-16T18:11:33.912Z,2.63
2022-08-16T18:14:02.601Z,2.27
2022-08-16T18:16:32.387Z,2.33
2022-08-16T18:19:01.341Z,2.17
2022-08-16T18:21:47.606Z,2.47
2022-08-16T18:24:16.770Z,2.80
2022-08-16T18:26:46.345Z,2.40
2022-08-16T18:29:14.796Z,2.30
2022-08-16T18:31:44.979Z,2.10
2022-08-16T18:34:13.536Z,2.40
2022-08-16T18:36:41.618Z,2.30
2022-08-16T18:39:10.357Z,2.70
2022-08-16T18:41:38.728Z,2.60
2022-08-16T18:44:24.744Z,2.70
2022-08-16T18:46:58.278Z,2.47
2022-08-16T18:49:26.993Z,2.30
2022-08-16T18:51:58.953Z,2.20
2022-08-16T18:54:30.219Z,2.50
2022-08-16T18:56:58.700Z,3.10
2022-08-16T18:59:29.946Z,2.40
2022-08-16T19:02:04.770Z,2.27
2022-08-16T19:04:57.437Z,2.20
2022-08-16T19:07:30.859Z,2.43
2022-08-16T19:10:01.698Z,2.77
2022-08-16T19:12:38.456Z,2.33
2022-08-16T19:15:18.793Z,2.80
2022-08-16T19:17:49.138Z,2.53
2022-08-16T19:20:20.905Z,2.47
2022-08-16T19:23:05.453Z,2.70
2022-08-16T19:25:49.226Z,2.57
2022-08-16T19:28:58.040Z,2.30
2022-08-16T19:31:25.983Z,2.47
2022-08-16T19:33:59.646Z,2.43
2022-08-16T19:36:35.150Z,2.90
2022-08-16T19:39:08.943Z,2.67
2022-08-16T19:41:41.065Z,3.50
2022-08-16T19:44:10.348Z,2.60
2022-08-16T19:46:43.386Z,2.67
2022-08-16T19:49:16.004Z,2.53
2022-08-16T19:51:46.003Z,3.10
2022-08-16T19:54:14.646Z,2.47
2022-08-16T19:56:43.957Z,3.10
2022-08-16T19:59:19.368Z,2.93
2022-08-16T20:01:51.009Z,2.80
2022-08-16T20:04:21.898Z,2.50
2022-08-16T20:06:50.309Z,3.27
2022-08-16T20:09:20.941Z,3.87
2022-08-16T20:11:52.345Z,3.23
2022-08-16T20:14:25.484Z,3.17
2022-08-16T20:16:56.570Z,3.40
2022-08-16T20:19:27.221Z,3.30
2022-08-16T20:21:57.302Z,3.00
2022-08-16T20:24:35.320Z,3.27
2022-08-16T20:27:05.979Z,3.63
2022-08-16T20:29:35.255Z,3.20
2022-08-16T20:32:04.850Z,3.67
2022-08-16T20:34:35.042Z,3.00
2022-08-16T20:37:05.244Z,3.63
2022-08-16T20:39:33.877Z,3.60
2022-08-16T20:42:02.750Z,3.67
2022-08-16T20:44:31.230Z,4.00
2022-08-16T20:46:59.495Z,2.97
2022-08-16T20:49:29.420Z,3.23
2022-08-16T20:52:04.439Z,3.30
2022-08-16T20:54:36.005Z,4.10
2022-08-16T20:57:06.251Z,3.57
2022-08-16T20:59:35.137Z,3.77
2022-08-16T21:02:04.300Z,3.43
2022-08-16T21:04:33.564Z,3.50
2022-08-16T21:07:04.671Z,4.20
2022-08-16T21:09:36.187Z,3.50
2022-08-16T21:12:10.498Z,3.37
2022-08-16T21:14:43.214Z,3.00
2022-08-16T21:17:15.916Z,3.80
2022-08-16T21:19:45.453Z,3.73
2022-08-16T21:22:21.560Z,3.43
2022-08-16T21:24:54.135Z,3.93
2022-08-16T21:27:24.332Z,3.90
2022-08-16T21:29:54.768Z,4.00
2022-08-16T21:32:34.829Z,3.67
2022-08-16T21:35:09.393Z,4.23
2022-08-16T21:37:42.860Z,3.97
2022-08-16T21:40:32.880Z,4.00
2022-08-16T21:43:12.085Z,3.40
2022-08-16T21:45:42.361Z,3.70
2022-08-16T21:48:10.992Z,3.20
2022-08-16T21:50:44.535Z,4.17
2022-08-16T21:53:19.047Z,3.40
2022-08-16T21:55:54.869Z,3.90
2022-08-16T21:58:26.552Z,3.80
2022-08-16T22:00:57.483Z,4.23
2022-08-16T22:03:27.928Z,4.37
2022-08-16T22:06:11.712Z,3.60
2022-08-16T22:08:50.600Z,4.03
2022-08-16T22:11:20.607Z,3.87
2022-08-16T22:13:57.440Z,4.00
2022-08-16T22:16:29.481Z,4.40
2022-08-16T22:19:00.872Z,4.20
2022-08-16T22:21:29.854Z,4.07
2022-08-16T22:23:59.732Z,3.87
2022-08-16T22:26:30.261Z,4.80
2022-08-16T22:29:00.703Z,4.27
2022-08-16T22:31:29.350Z,3.80
2022-08-16T22:33:58.183Z,3.90
2022-08-16T22:36:28.484Z,4.93
2022-08-16T22:39:01.628Z,4.40
2022-08-16T22:41:31.733Z,4.50
2022-08-16T22:44:00.836Z,4.63
2022-08-16T22:46:33.165Z,4.70
2022-08-16T22:49:01.393Z,4.43
2022-08-16T22:51:30.257Z,4.33
2022-08-16T22:54:00.145Z,5.23
2022-08-16T22:56:48.351Z,4.63
2022-08-16T22:59:16.648Z,4.03
2022-08-16T23:01:48.284Z,3.97
2022-08-16T23:04:16.402Z,3.80
2022-08-16T23:06:44.434Z,4.03
2022-08-16T23:09:13.856Z,3.80
2022-08-16T23:11:41.941Z,4.23
2022-08-16T23:14:10.105Z,4.03
2022-08-16T23:16:38.712Z,4.40
2022-08-16T23:19:09.672Z,4.57
2022-08-16T23:21:40.677Z,4.10
2022-08-16T23:24:09.983Z,3.90
2022-08-16T23:26:46.135Z,4.47
2022-08-16T23:29:24.272Z,3.93
2022-08-16T23:31:56.445Z,4.20
2022-08-16T23:34:25.056Z,3.90
2022-08-16T23:36:53.222Z,4.37
2022-08-16T23:39:21.267Z,4.77
2022-08-16T23:41:51.908Z,4.30
2022-08-16T23:44:55.768Z,3.50
2022-08-16T23:47:09.465Z,4.40
2022-08-16T23:49:57.794Z,4.13
2022-08-16T23:52:45.707Z,4.60
2022-08-16T23:55:16.456Z,3.67
2022-08-16T23:57:47.408Z,4.33
